Time;durP1;ratioP1;P1;durP2;ratioP2;P2;SDS_P1;SDS_P2;PMS_P1;PMS_P2;Temp;Humidity;BMP_temperature;BMP_pressure;BME280_temperature;BME280_humidity;BME280_pressure;Samples;Min_cycle;Max_cycle;Signal;HPM_P1;HPM_P2
2023/02/27 00:00:45;;;;;;;6.07;5.40;;;;;20.10;101598.00;;;;2070952;28;20686;-72
2023/02/27 00:01:45;;;;;;;6.32;5.60;;;;;20.10;101602.00;;;;2053684;28;20303;-73
2023/02/27 00:02:46;;;;;;;7.50;5.90;;;;;20.10;101584.00;;;;2046109;28;20213;-73
2023/02/27 00:03:47;;;;;;;7.07;5.55;;;;;20.10;101601.00;;;;2054081;28;20226;-73
2023/02/27 00:04:47;;;;;;;7.80;5.63;;;;;20.10;101604.00;;;;2053905;28;20216;-73
2023/02/27 00:05:47;;;;;;;9.07;5.67;;;;;20.10;101623.00;;;;2063668;28;20227;-73
2023/02/27 00:06:48;;;;;;;6.50;5.40;;;;;20.10;101613.00;;;;2062436;28;20242;-73
2023/02/27 00:07:48;;;;;;;6.50;5.57;;;;;20.10;101608.00;;;;2062257;28;20726;-73
2023/02/27 00:08:49;;;;;;;6.77;5.80;;;;;20.10;101609.00;;;;2062370;28;20778;-72
2023/02/27 00:09:49;;;;;;;5.57;4.97;;;;;20.10;101616.00;;;;2062829;28;20226;-73
2023/02/27 00:10:49;;;;;;;4.93;4.43;;;;;20.10;101608.00;;;;2063466;28;20215;-73
2023/02/27 00:11:50;;;;;;;5.70;4.47;;;;;20.10;101607.00;;;;2063298;28;20302;-73
2023/02/27 00:12:50;;;;;;;5.57;4.90;;;;;20.10;101608.00;;;;2063424;28;20347;-73
2023/02/27 00:13:50;;;;;;;5.23;4.60;;;;;20.10;101613.00;;;;2064358;28;20211;-72
2023/02/27 00:14:51;;;;;;;5.13;4.57;;;;;20.10;101616.00;;;;2064155;28;20217;-73
2023/02/27 00:15:52;;;;;;;6.93;5.40;;;;;20.10;101609.00;;;;2064469;28;20219;-73
2023/02/27 00:16:52;;;;;;;6.57;4.93;;;;;20.10;101607.00;;;;2064488;28;20207;-74
2023/02/27 00:17:53;;;;;;;6.20;5.53;;;;;20.00;101612.00;;;;2064133;28;20469;-74
2023/02/27 00:18:53;;;;;;;5.97;4.53;;;;;20.00;101597.00;;;;2064002;28;20214;-74
2023/02/27 00:19:53;;;;;;;6.83;4.70;;;;;20.00;101608.00;;;;2064334;28;20606;-74
2023/02/27 00:20:54;;;;;;;6.13;4.87;;;;;20.00;101609.00;;;;2063504;28;20223;-74
2023/02/27 00:21:54;;;;;;;5.50;4.90;;;;;20.00;101606.00;;;;2063629;28;20227;-74
2023/02/27 00:22:54;;;;;;;4.80;4.00;;;;;20.00;101602.00;;;;2064311;28;20230;-74
2023/02/27 00:23:54;;;;;;;5.80;4.37;;;;;20.00;101602.00;;;;2063303;28;20222;-74
2023/02/27 00:24:55;;;;;;;5.33;4.53;;;;;20.00;101607.00;;;;2063514;28;20215;-74
2023/02/27 00:25:55;;;;;;;5.00;4.40;;;;;20.00;101612.00;;;;2063903;28;20223;-74
2023/02/27 00:26:56;;;;;;;6.30;4.50;;;;;20.00;101600.00;;;;2064304;28;20512;-74
2023/02/27 00:27:56;;;;;;;4.87;4.30;;;;;20.00;101601.00;;;;2064040;28;20229;-74
2023/02/27 00:28:56;;;;;;;5.57;3.90;;;;;20.00;101604.00;;;;2063939;28;20781;-74
2023/02/27 00:29:57;;;;;;;5.03;4.00;;;;;20.00;101602.00;;;;2064174;28;20221;-74
2023/02/27 00:30:58;;;;;;;5.47;4.80;;;;;20.00;101601.00;;;;2064247;28;20229;-73
2023/02/27 00:31:59;;;;;;;4.37;3.97;;;;;20.00;101600.00;;;;2064103;28;20458;-74
2023/02/27 00:32:59;;;;;;;4.70;3.77;;;;;20.00;101602.00;;;;2064163;28;20219;-74
2023/02/27 00:33:59;;;;;;;4.10;3.30;;;;;19.90;101586.00;;;;2064136;28;20454;-74
2023/02/27 00:35:00;;;;;;;4.90;4.30;;;;;20.00;101604.00;;;;2063457;28;20899;-74
2023/02/27 00:36:00;;;;;;;4.40;4.00;;;;;20.00;101598.00;;;;2063488;28;20215;-74
2023/02/27 00:37:00;;;;;;;5.47;4.27;;;;;20.00;101606.00;;;;2063989;28;20218;-74
2023/02/27 00:38:01;;;;;;;4.50;4.10;;;;;20.00;101601.00;;;;2063647;28;20297;-74
2023/02/27 00:39:01;;;;;;;5.23;3.97;;;;;20.00;101607.00;;;;2064069;28;20226;-73
2023/02/27 00:40:04;;;;;;;4.73;3.67;;;;;19.90;101599.00;;;;2063972;28;20226;-74
2023/02/27 00:41:04;;;;;;;4.90;3.85;;;;;20.00;101599.00;;;;2063804;28;20293;-74
2023/02/27 00:42:04;;;;;;;5.03;3.80;;;;;19.90;101604.00;;;;2063009;28;20214;-73
2023/02/27 00:43:05;;;;;;;4.27;3.57;;;;;19.90;101605.00;;;;2063498;28;20277;-74
2023/02/27 00:44:05;;;;;;;4.17;3.60;;;;;19.90;101601.00;;;;2063630;28;20230;-74
2023/02/27 00:45:06;;;;;;;4.57;3.67;;;;;19.90;101597.00;;;;2063160;28;20314;-73
2023/02/27 00:46:06;;;;;;;4.13;3.73;;;;;19.90;101597.00;;;;2063492;28;20214;-74
2023/02/27 00:47:06;;;;;;;4.30;3.73;;;;;19.90;101599.00;;;;2063391;28;20485;-73
2023/02/27 00:48:07;;;;;;;3.40;3.10;;;;;19.90;101599.00;;;;2063271;28;20269;-74
2023/02/27 00:49:07;;;;;;;3.60;3.10;;;;;19.90;101598.00;;;;2063481;28;20211;-74
2023/02/27 00:50:08;;;;;;;5.03;3.43;;;;;19.90;101596.00;;;;2063740;28;20215;-74
2023/02/27 00:51:08;;;;;;;3.67;3.30;;;;;19.90;101605.00;;;;2063297;28;20222;-74
2023/02/27 00:52:09;;;;;;;3.40;3.10;;;;;19.90;101602.00;;;;2063749;28;20211;-73
2023/02/27 00:53:09;;;;;;;4.03;3.20;;;;;19.90;101592.00;;;;2063985;28;20269;-74
2023/02/27 00:54:10;;;;;;;4.50;3.43;;;;;19.90;101595.00;;;;2063140;28;20215;-73
2023/02/27 00:55:10;;;;;;;3.80;3.10;;;;;19.90;101598.00;;;;2063395;28;20218;-74
2023/02/27 00:56:10;;;;;;;3.63;3.10;;;;;19.90;101595.00;;;;2063932;28;20293;-73
2023/02/27 00:57:11;;;;;;;3.50;3.20;;;;;19.90;101594.00;;;;2063880;28;20215;-74
2023/02/27 00:58:11;;;;;;;4.73;3.20;;;;;19.90;101598.00;;;;2063474;28;20226;-74
2023/02/27 00:59:11;;;;;;;4.23;3.13;;;;;19.80;101596.00;;;;2063814;28;20230;-74
2023/02/27 01:00:12;;;;;;;3.60;3.00;;;;;19.90;101592.00;;;;2063999;28;20305;-74
2023/02/27 01:01:12;;;;;;;4.47;3.30;;;;;19.80;101576.00;;;;2063215;28;20210;-74
2023/02/27 01:02:13;;;;;;;4.37;3.20;;;;;19.80;101592.00;;;;2055142;28;20245;-73
2023/02/27 01:03:13;;;;;;;3.47;3.17;;;;;19.80;101591.00;;;;2055009;28;20908;-73
2023/02/27 01:04:13;;;;;;;4.27;3.40;;;;;19.80;101596.00;;;;2063056;28;20211;-73
2023/02/27 01:05:14;;;;;;;3.80;3.07;;;;;19.80;101593.00;;;;2065053;28;20223;-74
2023/02/27 01:06:14;;;;;;;3.60;2.73;;;;;19.90;101600.00;;;;2071947;28;20309;-73
2023/02/27 01:07:14;;;;;;;4.03;3.10;;;;;19.90;101597.00;;;;2071966;28;20222;-74
2023/02/27 01:08:15;;;;;;;2.90;2.60;;;;;19.80;101598.00;;;;2071776;28;20260;-73
2023/02/27 01:09:15;;;;;;;4.47;3.10;;;;;19.80;101602.00;;;;2072224;28;20677;-72
2023/02/27 01:10:15;;;;;;;4.00;2.70;;;;;19.90;101593.00;;;;2072059;28;20218;-74
2023/02/27 01:11:16;;;;;;;4.57;3.10;;;;;19.80;101592.00;;;;2071908;28;20400;-74
2023/02/27 01:12:16;;;;;;;3.40;2.80;;;;;19.80;101594.00;;;;2071528;28;20281;-74
2023/02/27 01:13:17;;;;;;;3.33;2.77;;;;;19.80;101588.00;;;;2072236;28;20206;-75
2023/02/27 01:14:17;;;;;;;3.60;3.23;;;;;19.80;101592.00;;;;2072072;28;20210;-74
2023/02/27 01:15:17;;;;;;;3.40;2.80;;;;;19.80;101588.00;;;;2071764;28;20214;-75
2023/02/27 01:16:18;;;;;;;5.87;3.30;;;;;19.70;101590.00;;;;2072116;28;20214;-74
2023/02/27 01:17:18;;;;;;;3.20;2.90;;;;;19.70;101591.00;;;;2071151;28;20280;-74
2023/02/27 01:18:18;;;;;;;3.10;2.80;;;;;19.80;101594.00;;;;2070917;28;20210;-74
2023/02/27 01:19:19;;;;;;;5.03;2.97;;;;;19.70;101594.00;;;;2071937;28;20249;-71
2023/02/27 01:20:19;;;;;;;9.03;3.23;;;;;19.70;101600.00;;;;2071966;28;20236;-74
2023/02/27 01:21:19;;;;;;;3.73;3.07;;;;;19.80;101601.00;;;;2071986;28;20210;-73
2023/02/27 01:22:20;;;;;;;3.03;2.67;;;;;19.70;101599.00;;;;2071179;28;20278;-74
2023/02/27 01:23:20;;;;;;;4.17;2.87;;;;;19.70;101604.00;;;;2071040;28;20226;-74
2023/02/27 01:24:21;;;;;;;3.27;2.47;;;;;19.70;101604.00;;;;2071315;28;20203;-74
2023/02/27 01:25:21;;;;;;;3.10;2.80;;;;;19.70;101595.00;;;;2071650;28;20230;-74
2023/02/27 01:26:21;;;;;;;3.67;3.03;;;;;19.70;101601.00;;;;2071810;28;20288;-74
2023/02/27 01:27:22;;;;;;;4.97;3.00;;;;;19.70;101597.00;;;;2071966;28;20206;-74
2023/02/27 01:28:22;;;;;;;3.70;3.07;;;;;19.70;101590.00;;;;2071789;28;20210;-74
2023/02/27 01:29:22;;;;;;;4.70;3.33;;;;;19.70;101599.00;;;;2072062;28;20222;-74
2023/02/27 01:30:23;;;;;;;4.00;3.00;;;;;19.70;101596.00;;;;2072344;28;20218;-74
2023/02/27 01:31:23;;;;;;;3.60;2.70;;;;;19.70;101597.00;;;;2071827;28;20210;-74
2023/02/27 01:32:23;;;;;;;4.93;2.87;;;;;19.70;101602.00;;;;2072295;28;20224;-74
2023/02/27 01:33:24;;;;;;;3.27;2.27;;;;;19.70;101598.00;;;;2072186;28;20215;-74
2023/02/27 01:34:24;;;;;;;2.97;2.60;;;;;19.70;101596.00;;;;2076340;28;20210;-73
2023/02/27 01:35:24;;;;;;;4.97;3.07;;;;;19.70;101596.00;;;;2077009;28;20233;-73
2023/02/27 01:36:25;;;;;;;2.77;2.53;;;;;19.70;101591.00;;;;2072664;28;20217;-74
2023/02/27 01:37:25;;;;;;;5.67;3.70;;;;;19.70;101595.00;;;;2071963;28;20701;-74
2023/02/27 01:38:25;;;;;;;2.93;2.50;;;;;19.60;101593.00;;;;2071751;28;20268;-73
2023/02/27 01:39:26;;;;;;;3.20;2.50;;;;;19.60;101596.00;;;;2071744;28;20294;-73
2023/02/27 01:40:26;;;;;;;2.87;2.47;;;;;19.60;101597.00;;;;2071037;28;20225;-73
2023/02/27 01:41:27;;;;;;;3.00;2.50;;;;;19.70;101595.00;;;;2071226;28;20524;-73
2023/02/27 01:42:28;;;;;;;3.40;2.80;;;;;19.60;101594.00;;;;2071655;28;20216;-73
2023/02/27 01:43:28;;;;;;;3.13;2.20;;;;;19.60;101599.00;;;;2071830;28;20536;-74
2023/02/27 01:44:29;;;;;;;2.50;2.30;;;;;19.60;101597.00;;;;2071639;28;20210;-73
2023/02/27 01:45:39;;;;;;;2.80;2.45;;;;;19.60;101601.00;;;;2071463;28;20215;-73
2023/02/27 01:46:40;;;;;;;3.70;2.50;;;;;19.60;101594.00;;;;2070629;28;20272;-73
2023/02/27 01:47:42;;;;;;;3.23;2.50;;;;;19.60;101598.00;;;;2070954;28;20293;-73
2023/02/27 01:48:44;;;;;;;3.53;2.28;;;;;19.60;101573.00;;;;2070856;28;20225;-73
2023/02/27 01:49:44;;;;;;;3.10;2.30;;;;;19.60;101597.00;;;;2071079;28;20226;-74
2023/02/27 01:51:10;;;;;;;2.80;2.37;;;;;19.60;101593.00;;;;2071141;28;20228;-72
2023/02/27 01:52:10;;;;;;;2.50;2.30;;;;;19.60;101593.00;;;;2068613;28;20214;-72
2023/02/27 01:53:10;;;;;;;2.27;2.07;;;;;19.60;101592.00;;;;2071164;28;20293;-73
2023/02/27 01:54:11;;;;;;;2.50;2.20;;;;;19.60;101593.00;;;;2071159;28;20222;-73
2023/02/27 01:55:12;;;;;;;2.83;2.47;;;;;19.60;101576.00;;;;2070979;28;20701;-74
2023/02/27 01:56:26;;;;;;;3.20;2.17;;;;;19.60;101588.00;;;;2070783;28;20586;-73
2023/02/27 01:57:26;;;;;;;3.63;2.58;;;;;19.60;101598.00;;;;2070940;28;20459;-73
2023/02/27 01:58:26;;;;;;;2.77;2.33;;;;;19.60;101594.00;;;;2070890;28;20693;-73
2023/02/27 01:59:27;;;;;;;3.17;2.30;;;;;19.60;101595.00;;;;2070995;28;20222;-74
2023/02/27 02:00:27;;;;;;;2.20;1.97;;;;;19.60;101597.00;;;;2070757;28;20218;-73
2023/02/27 02:01:28;;;;;;;3.30;2.50;;;;;19.50;101577.00;;;;2070520;28;20260;-73
2023/02/27 02:02:37;;;;;;;3.88;2.20;;;;;19.60;101595.00;;;;2070858;28;20229;-74
2023/02/27 02:04:13;;;;;;;3.08;2.30;;;;;19.60;101576.00;;;;2071013;28;20714;-74
2023/02/27 02:05:14;;;;;;;2.50;2.20;;;;;19.60;101598.00;;;;2063373;28;20226;-73
2023/02/27 02:06:14;;;;;;;2.23;1.90;;;;;19.60;101599.00;;;;2054922;28;20675;-74
2023/02/27 02:07:16;;;;;;;2.70;2.03;;;;;19.60;101573.00;;;;2055088;28;20270;-74
2023/02/27 02:08:17;;;;;;;2.63;2.10;;;;;19.60;101593.00;;;;2054430;28;20228;-74
2023/02/27 02:09:18;;;;;;;3.13;2.08;;;;;19.50;101601.00;;;;2054464;28;20315;-74
2023/02/27 02:10:18;;;;;;;2.40;2.17;;;;;19.50;101600.00;;;;2062779;28;20223;-74
2023/02/27 02:11:19;;;;;;;2.23;1.90;;;;;19.50;101596.00;;;;2054816;28;20617;-74
2023/02/27 02:12:21;;;;;;;2.60;2.00;;;;;19.50;101596.00;;;;2046546;28;20236;-74
2023/02/27 02:13:21;;;;;;;2.70;2.33;;;;;19.50;101605.00;;;;2062572;28;20253;-74
2023/02/27 02:14:22;;;;;;;3.60;2.57;;;;;19.50;101601.00;;;;2054612;28;20227;-74
2023/02/27 02:15:31;;;;;;;3.00;2.30;;;;;19.50;101603.00;;;;2055249;28;20227;-73
2023/02/27 02:16:34;;;;;;;3.33;2.33;;;;;19.50;101599.00;;;;2054529;28;20211;-74
2023/02/27 02:18:01;;;;;;;3.33;2.20;;;;;19.50;101595.00;;;;2047601;28;20222;-74
2023/02/27 02:19:07;;;;;;;2.58;1.73;;;;;19.50;101599.00;;;;2049860;28;20239;-74
2023/02/27 02:20:25;;;;;;;2.22;2.03;;;;;19.50;101600.00;;;;2054567;28;20212;-74
2023/02/27 02:21:50;;;;;;;3.20;2.53;;;;;19.50;101596.00;;;;2054069;28;20694;-74
2023/02/27 02:23:21;;;;;;;1.92;1.75;;;;;19.50;101591.00;;;;2054745;28;20653;-74
2023/02/27 02:24:30;;;;;;;3.67;1.95;;;;;19.50;101592.00;;;;2062399;28;20218;-74
2023/02/27 02:25:49;;;;;;;2.08;1.77;;;;;19.50;101593.00;;;;2061369;28;20277;-74
2023/02/27 02:26:49;;;;;;;2.83;2.15;;;;;19.50;101601.00;;;;2055184;28;20215;-73
2023/02/27 02:28:05;;;;;;;2.60;2.00;;;;;19.50;101603.00;;;;2054975;28;20220;-73
2023/02/27 02:29:46;;;;;;;2.47;1.88;;;;;19.40;101593.00;;;;2062134;28;20299;-73
2023/02/27 02:31:24;;;;;;;2.95;1.90;;;;;19.50;101591.00;;;;2054328;28;20214;-73
2023/02/27 02:32:42;;;;;;;2.10;1.90;;;;;19.40;101600.00;;;;2054600;28;20227;-74
2023/02/27 02:33:58;;;;;;;2.50;1.70;;;;;19.50;101603.00;;;;2054911;28;20317;-74
2023/02/27 02:35:23;;;;;;;2.65;2.13;;;;;19.40;101593.00;;;;2054900;28;20218;-73
2023/02/27 02:37:01;;;;;;;2.88;2.13;;;;;19.40;101598.00;;;;2055077;28;20687;-73
2023/02/27 02:38:38;;;;;;;2.30;1.90;;;;;19.40;101597.00;;;;2054506;28;20211;-74
2023/02/27 02:39:56;;;;;;;3.58;2.40;;;;;19.40;101601.00;;;;2054821;28;20789;-74
2023/02/27 02:41:11;;;;;;;2.55;2.05;;;;;19.50;101578.00;;;;2055221;28;20317;-74
2023/02/27 02:42:23;;;;;;;4.75;2.65;;;;;19.40;101601.00;;;;2053852;28;20218;-74
2023/02/27 02:43:27;;;;;;;3.00;1.95;;;;;19.40;101600.00;;;;2054877;28;20220;-73
2023/02/27 02:44:35;;;;;;;2.40;1.73;;;;;19.40;101583.00;;;;2054489;28;20227;-74
2023/02/27 02:45:50;;;;;;;2.03;1.80;;;;;19.40;101609.00;;;;2054241;28;20235;-73
2023/02/27 02:47:14;;;;;;;2.08;1.60;;;;;19.40;101599.00;;;;2062465;28;20211;-73
2023/02/27 02:48:35;;;;;;;2.67;2.08;;;;;19.40;101612.00;;;;2053839;28;20278;-74
2023/02/27 02:49:59;;;;;;;2.50;2.22;;;;;19.40;101604.00;;;;2054421;28;21030;-74
2023/02/27 02:51:09;;;;;;;2.10;1.77;;;;;19.40;101597.00;;;;2054039;28;20294;-74
2023/02/27 02:52:31;;;;;;;2.53;2.08;;;;;19.40;101612.00;;;;2057468;28;20210;-73
2023/02/27 02:53:43;;;;;;;2.42;1.77;;;;;19.40;101592.00;;;;2059312;28;20602;-74
2023/02/27 02:55:05;;;;;;;2.83;2.10;;;;;19.40;101600.00;;;;2054446;28;20227;-74
2023/02/27 02:56:13;;;;;;;1.85;1.60;;;;;19.40;101615.00;;;;2045198;28;20294;-73
2023/02/27 02:57:19;;;;;;;2.50;1.90;;;;;19.40;101588.00;;;;2053681;28;20286;-73
2023/02/27 02:58:32;;;;;;;2.17;1.90;;;;;19.40;101600.00;;;;2046778;28;20306;-74
2023/02/27 02:59:36;;;;;;;2.15;1.95;;;;;19.40;101588.00;;;;2047487;28;20984;-74
2023/02/27 03:00:41;;;;;;;2.30;2.05;;;;;19.40;101607.00;;;;2046775;28;20230;-73
2023/02/27 03:01:44;;;;;;;2.45;1.85;;;;;19.30;101597.00;;;;2046809;28;20216;-73
2023/02/27 03:02:48;;;;;;;2.33;1.75;;;;;19.40;101608.00;;;;2046279;28;20662;-73
2023/02/27 03:03:51;;;;;;;3.20;2.05;;;;;19.40;101609.00;;;;2039931;28;20216;-73
2023/02/27 03:04:55;;;;;;;3.40;2.50;;;;;19.30;101605.00;;;;2054330;28;20345;-73
2023/02/27 03:06:19;;;;;;;2.45;1.63;;;;;19.30;101619.00;;;;2060817;28;20223;-73
2023/02/27 03:07:31;;;;;;;2.65;2.17;;;;;19.30;101612.00;;;;2057716;28;20777;-74
2023/02/27 03:08:45;;;;;;;2.03;1.60;;;;;19.30;101598.00;;;;2063412;28;20214;-74
2023/02/27 03:09:48;;;;;;;2.40;1.70;;;;;19.30;101613.00;;;;2070391;28;20756;-73
2023/02/27 03:10:57;;;;;;;3.00;2.08;;;;;19.30;101601.00;;;;2069546;28;20214;-73
2023/02/27 03:11:57;;;;;;;2.50;1.80;;;;;19.30;101596.00;;;;2063607;28;20218;-73
2023/02/27 03:13:04;;;;;;;1.70;1.30;;;;;19.30;101609.00;;;;2062656;28;20215;-73
2023/02/27 03:14:06;;;;;;;4.15;2.28;;;;;19.30;101618.00;;;;2069961;28;20298;-73
2023/02/27 03:15:18;;;;;;;2.72;1.77;;;;;19.30;101616.00;;;;2071174;28;20222;-73
2023/02/27 03:16:32;;;;;;;3.40;1.60;;;;;19.30;101609.00;;;;2070527;28;20257;-73
2023/02/27 03:17:42;;;;;;;2.83;1.65;;;;;19.30;101609.00;;;;2062133;28;20241;-73
2023/02/27 03:18:52;;;;;;;2.90;1.90;;;;;19.30;101613.00;;;;2061732;28;20294;-73
2023/02/27 03:19:55;;;;;;;3.40;1.77;;;;;19.30;101606.00;;;;2056878;28;20646;-73
2023/02/27 03:21:02;;;;;;;2.95;2.13;;;;;19.30;101594.00;;;;2062313;28;20269;-73
2023/02/27 03:22:18;;;;;;;2.33;1.60;;;;;19.30;101601.00;;;;2056125;28;20745;-73
2023/02/27 03:23:21;;;;;;;2.40;1.90;;;;;19.30;101602.00;;;;2056030;28;20643;-73
2023/02/27 03:24:25;;;;;;;3.58;2.28;;;;;19.30;101588.00;;;;2047613;28;20268;-73
2023/02/27 03:25:28;;;;;;;2.03;1.83;;;;;19.30;101608.00;;;;2054981;28;20944;-73
2023/02/27 03:26:32;;;;;;;2.50;1.40;;;;;19.30;101605.00;;;;2062412;28;20219;-74
2023/02/27 03:27:35;;;;;;;4.38;2.20;;;;;19.30;101612.00;;;;2070203;28;20218;-74
2023/02/27 03:28:38;;;;;;;3.60;2.40;;;;;19.30;101590.00;;;;2051418;28;20211;-73
2023/02/27 03:29:51;;;;;;;2.38;2.05;;;;;19.30;101615.00;;;;2047258;28;20212;-73
2023/02/27 03:31:07;;;;;;;3.65;2.45;;;;;19.20;101608.00;;;;2064158;28;20653;-74
2023/02/27 03:32:38;;;;;;;3.33;2.97;;;;;19.30;101609.00;;;;2062067;28;20893;-74
2023/02/27 03:33:42;;;;;;;2.95;1.75;;;;;19.20;101606.00;;;;2057961;28;20214;-74
2023/02/27 03:34:42;;;;;;;2.53;1.90;;;;;19.20;101617.00;;;;2070458;28;20258;-74
2023/02/27 03:36:11;;;;;;;2.40;2.10;;;;;19.20;101605.00;;;;2070306;28;20206;-73
2023/02/27 03:37:49;;;;;;;3.35;2.08;;;;;19.20;101609.00;;;;2065121;28;20211;-74
2023/02/27 03:38:59;;;;;;;2.70;2.00;;;;;19.20;101616.00;;;;2066215;28;20234;-73
2023/02/27 03:40:28;;;;;;;2.28;1.63;;;;;19.20;101614.00;;;;2069939;28;20308;-73
2023/02/27 03:41:30;;;;;;;2.20;1.70;;;;;19.20;101586.00;;;;2070080;28;20225;-73
2023/02/27 03:42:33;;;;;;;2.97;2.10;;;;;19.20;101613.00;;;;2070265;28;20210;-73
2023/02/27 03:44:00;;;;;;;2.60;1.90;;;;;19.20;101619.00;;;;2070404;28;20574;-73
2023/02/27 03:45:30;;;;;;;2.80;1.90;;;;;19.20;101617.00;;;;2069944;28;20214;-73
2023/02/27 03:46:31;;;;;;;3.88;1.67;;;;;19.20;101622.00;;;;2070232;28;20229;-73
2023/02/27 03:47:31;;;;;;;4.40;1.87;;;;;19.20;101614.00;;;;2063719;28;20211;-73
2023/02/27 03:48:32;;;;;;;2.73;1.93;;;;;19.20;101615.00;;;;2055416;28;20283;-72
2023/02/27 03:49:32;;;;;;;2.43;1.60;;;;;19.20;101615.00;;;;2062473;28;20219;-73
2023/02/27 03:50:33;;;;;;;2.37;1.90;;;;;19.10;101615.00;;;;2071633;28;20234;-73
2023/02/27 03:51:34;;;;;;;2.83;1.73;;;;;19.20;101614.00;;;;2063795;28;20219;-73
2023/02/27 03:52:34;;;;;;;2.63;2.10;;;;;19.20;101602.00;;;;2063561;28;20214;-73
2023/02/27 03:53:45;;;;;;;2.13;1.70;;;;;19.10;101609.00;;;;2063721;28;20221;-73
2023/02/27 03:55:11;;;;;;;2.38;2.03;;;;;19.10;101607.00;;;;2064811;28;21002;-73
2023/02/27 03:56:11;;;;;;;1.70;1.50;;;;;19.20;101617.00;;;;2066559;28;20612;-73
2023/02/27 03:57:14;;;;;;;2.50;2.03;;;;;19.20;101605.00;;;;2063689;28;20213;-74
2023/02/27 03:58:14;;;;;;;3.65;2.22;;;;;19.20;101590.00;;;;2071524;28;20628;-73
2023/02/27 03:59:14;;;;;;;1.80;1.70;;;;;19.20;101618.00;;;;2071856;28;20249;-73
2023/02/27 04:00:19;;;;;;;2.10;1.80;;;;;19.10;101616.00;;;;2071779;28;20261;-73
2023/02/27 04:01:19;;;;;;;3.20;1.90;;;;;19.10;101623.00;;;;2072445;28;20206;-74
2023/02/27 04:02:20;;;;;;;2.70;1.70;;;;;19.10;101614.00;;;;2071740;28;20756;-73
2023/02/27 04:03:20;;;;;;;2.00;1.70;;;;;19.10;101617.00;;;;2071690;28;20214;-73
2023/02/27 04:04:21;;;;;;;2.07;1.67;;;;;19.20;101614.00;;;;2055561;28;20274;-73
2023/02/27 04:05:21;;;;;;;2.73;2.07;;;;;19.10;101615.00;;;;2052128;28;20212;-73
2023/02/27 04:08:19;;;;;;;2.53;1.85;;;;;19.10;101626.00;;;;2049298;28;20226;-73
2023/02/27 04:09:58;;;;;;;2.22;1.45;;;;;19.10;101605.00;;;;2055790;28;20223;-73
2023/02/27 04:11:26;;;;;;;1.83;1.63;;;;;19.10;101620.00;;;;2055509;28;20223;-73
2023/02/27 04:12:48;;;;;;;2.42;1.58;;;;;19.10;101606.00;;;;2055512;28;20794;-72
2023/02/27 04:14:09;;;;;;;2.13;1.90;;;;;19.10;101621.00;;;;2055866;28;20223;-73
2023/02/27 04:15:38;;;;;;;2.22;1.67;;;;;19.10;101614.00;;;;2055116;28;20211;-73
2023/02/27 04:17:00;;;;;;;2.33;1.52;;;;;19.10;101618.00;;;;2051560;28;20322;-73
2023/02/27 04:18:16;;;;;;;3.30;1.95;;;;;19.10;101599.00;;;;2055397;28;20251;-73
2023/02/27 04:19:44;;;;;;;2.42;1.85;;;;;19.10;101624.00;;;;2054862;28;20245;-73
2023/02/27 04:20:53;;;;;;;3.08;1.73;;;;;19.10;101632.00;;;;2054823;28;20701;-73
2023/02/27 04:22:13;;;;;;;2.72;1.50;;;;;19.10;101631.00;;;;2055926;28;20222;-73
2023/02/27 04:23:17;;;;;;;3.58;1.70;;;;;19.10;101599.00;;;;2051367;28;20215;-73
2023/02/27 04:24:37;;;;;;;1.85;1.73;;;;;19.10;101629.00;;;;2055021;28;20735;-73
2023/02/27 04:25:42;;;;;;;1.85;1.67;;;;;19.10;101624.00;;;;2041648;29;20560;-73
2023/02/27 04:27:12;;;;;;;3.50;2.00;;;;;19.00;101621.00;;;;2048252;28;20230;-73
2023/02/27 04:28:16;;;;;;;2.72;1.50;;;;;19.10;101628.00;;;;2054721;28;20216;-73
2023/02/27 04:29:17;;;;;;;2.40;1.88;;;;;19.10;101627.00;;;;2048233;28;21054;-73
2023/02/27 04:30:28;;;;;;;2.78;1.52;;;;;19.10;101620.00;;;;2047693;28;20219;-73
2023/02/27 04:31:40;;;;;;;3.05;1.60;;;;;19.10;101630.00;;;;2048477;28;20231;-73
2023/02/27 04:32:50;;;;;;;2.40;1.65;;;;;19.00;101630.00;;;;2048504;28;20303;-73
2023/02/27 04:33:56;;;;;;;2.10;1.60;;;;;19.00;101635.00;;;;2047799;28;20245;-73
2023/02/27 04:34:59;;;;;;;1.92;1.60;;;;;19.00;101627.00;;;;2047964;28;20244;-73
2023/02/27 04:36:23;;;;;;;2.47;1.80;;;;;19.00;101627.00;;;;2047407;28;20227;-73
2023/02/27 04:37:41;;;;;;;2.00;1.55;;;;;19.00;101619.00;;;;2054916;28;20246;-73
2023/02/27 04:38:45;;;;;;;3.72;1.80;;;;;19.00;101620.00;;;;2051712;28;20691;-74
2023/02/27 04:40:06;;;;;;;3.30;2.03;;;;;19.00;101632.00;;;;2048971;28;20227;-73
2023/02/27 04:41:14;;;;;;;2.88;2.00;;;;;19.00;101623.00;;;;2055320;28;20294;-72
2023/02/27 04:42:15;;;;;;;2.30;1.63;;;;;19.00;101625.00;;;;2054852;28;20212;-74
2023/02/27 04:43:15;;;;;;;2.15;1.70;;;;;19.00;101638.00;;;;2039344;29;20626;-73
2023/02/27 04:44:16;;;;;;;2.20;1.60;;;;;19.00;101639.00;;;;2038736;29;21769;-74
2023/02/27 04:45:17;;;;;;;2.33;1.73;;;;;19.00;101654.00;;;;2039316;28;20221;-74
2023/02/27 04:46:19;;;;;;;3.70;1.90;;;;;19.00;101620.00;;;;2039766;28;20793;-73
2023/02/27 04:47:19;;;;;;;2.42;1.63;;;;;19.00;101627.00;;;;2055306;28;20691;-74
2023/02/27 04:48:22;;;;;;;2.27;1.60;;;;;19.00;101646.00;;;;2038076;29;20249;-73
2023/02/27 04:49:27;;;;;;;1.88;1.70;;;;;19.00;101640.00;;;;2031561;29;20272;-73
2023/02/27 04:50:32;;;;;;;3.53;2.03;;;;;19.00;101651.00;;;;2040129;28;20228;-72
2023/02/27 04:51:35;;;;;;;1.85;1.63;;;;;19.00;101631.00;;;;2047481;28;20212;-73
2023/02/27 04:52:55;;;;;;;4.78;1.60;;;;;19.00;101647.00;;;;2039117;28;20213;-73
2023/02/27 04:53:56;;;;;;;2.33;1.65;;;;;19.00;101649.00;;;;2049648;28;20713;-73
2023/02/27 04:55:16;;;;;;;3.25;1.98;;;;;18.90;101641.00;;;;2054897;28;20225;-73
2023/02/27 04:56:21;;;;;;;1.95;1.60;;;;;19.00;101630.00;;;;2055331;28;20548;-73
2023/02/27 04:57:25;;;;;;;2.08;1.55;;;;;18.90;101651.00;;;;2052804;28;20259;-73
2023/02/27 04:58:28;;;;;;;3.03;1.88;;;;;18.90;101645.00;;;;2039174;28;20216;-73
2023/02/27 04:59:32;;;;;;;2.30;1.55;;;;;18.90;101650.00;;;;2032439;29;20247;-73
2023/02/27 05:00:32;;;;;;;4.40;1.90;;;;;18.90;101648.00;;;;2031878;29;20806;-74
2023/02/27 05:01:48;;;;;;;2.20;1.90;;;;;18.90;101668.00;;;;2039333;28;20296;-73
2023/02/27 05:02:51;;;;;;;2.72;1.80;;;;;18.90;101650.00;;;;2048584;28;20722;-73
2023/02/27 05:03:51;;;;;;;3.10;1.90;;;;;18.90;101634.00;;;;2047737;28;20357;-73
2023/02/27 05:04:56;;;;;;;2.83;1.90;;;;;18.90;101652.00;;;;2046934;28;20617;-73
2023/02/27 05:05:57;;;;;;;2.10;1.85;;;;;18.90;101657.00;;;;2062095;28;20232;-73
2023/02/27 05:06:58;;;;;;;2.15;1.70;;;;;19.00;101656.00;;;;2055797;28;20297;-74
2023/02/27 05:08:02;;;;;;;2.20;1.50;;;;;19.00;101647.00;;;;2062554;28;20301;-73
2023/02/27 05:09:35;;;;;;;2.10;1.75;;;;;19.00;101661.00;;;;2062821;28;20810;-73
2023/02/27 05:10:39;;;;;;;2.50;1.85;;;;;18.90;101661.00;;;;2067677;28;20610;-73
2023/02/27 05:12:03;;;;;;;2.65;1.70;;;;;18.90;101665.00;;;;2070933;28;20388;-73
2023/02/27 05:13:12;;;;;;;2.03;1.83;;;;;18.90;101649.00;;;;2054111;28;20227;-73
2023/02/27 05:14:18;;;;;;;2.03;1.77;;;;;18.90;101651.00;;;;2056211;28;20211;-73
2023/02/27 05:15:29;;;;;;;2.95;2.10;;;;;18.90;101662.00;;;;2056770;28;20215;-73
2023/02/27 05:16:42;;;;;;;2.60;1.90;;;;;18.90;101665.00;;;;2064546;28;20352;-73
2023/02/27 05:18:02;;;;;;;2.58;2.00;;;;;18.90;101668.00;;;;2071170;28;20698;-73
2023/02/27 05:19:03;;;;;;;2.45;1.92;;;;;18.90;101663.00;;;;2070899;28;20230;-73
2023/02/27 05:20:06;;;;;;;1.57;1.33;;;;;18.90;101664.00;;;;2071367;28;20209;-73
2023/02/27 05:21:35;;;;;;;2.25;1.60;;;;;18.90;101651.00;;;;2072185;28;20217;-73
2023/02/27 05:22:45;;;;;;;2.92;1.70;;;;;18.90;101671.00;;;;2071479;28;20213;-73
2023/02/27 05:24:06;;;;;;;2.42;2.00;;;;;18.90;101668.00;;;;2071108;28;20588;-73
2023/02/27 05:25:26;;;;;;;2.60;1.80;;;;;18.90;101667.00;;;;2071119;28;20279;-73
2023/02/27 05:26:42;;;;;;;2.63;1.77;;;;;18.90;101673.00;;;;2071395;28;20284;-74
2023/02/27 05:27:53;;;;;;;2.38;2.00;;;;;18.90;101669.00;;;;2071373;28;20218;-73
2023/02/27 05:29:13;;;;;;;2.20;1.70;;;;;18.90;101672.00;;;;2062574;28;20244;-73
2023/02/27 05:30:20;;;;;;;2.65;1.90;;;;;18.90;101674.00;;;;2057901;28;20219;-73
2023/02/27 05:31:28;;;;;;;2.67;1.80;;;;;18.90;101677.00;;;;2061240;28;20702;-73
2023/02/27 05:32:36;;;;;;;3.85;1.90;;;;;18.90;101682.00;;;;2047521;28;20289;-73